createdAt,value
2019-05-01T00:02:12.753Z,32.67
2019-05-01T00:05:22.018Z,31.17
2019-05-01T00:08:26.450Z,30.23
2019-05-01T00:11:30.757Z,30.73
2019-05-01T00:14:35.033Z,33.90
2019-05-01T00:17:39.378Z,31.70
2019-05-01T00:20:43.701Z,33.13
2019-05-01T00:23:48.064Z,31.53
2019-05-01T00:26:52.390Z,32.60
2019-05-01T00:29:56.685Z,31.37
2019-05-01T00:33:01.022Z,30.73
2019-05-01T00:36:08.130Z,31.13
2019-05-01T00:39:13.845Z,29.43
2019-05-01T00:42:18.167Z,30.77
2019-05-01T00:45:22.483Z,30.17
2019-05-01T00:48:26.787Z,30.47
2019-05-01T00:51:31.095Z,32.67
2019-05-01T00:54:37.005Z,31.40
2019-05-01T00:57:45.819Z,32.63
2019-05-01T01:01:27.386Z,32.70
2019-05-01T01:04:31.856Z,31.77
2019-05-01T01:07:36.191Z,30.77
2019-05-01T01:10:40.559Z,30.70
2019-05-01T01:13:44.903Z,30.37
2019-05-01T01:16:49.253Z,32.17
2019-05-01T01:19:53.560Z,31.53
2019-05-01T01:22:57.865Z,31.80
2019-05-01T01:26:02.274Z,31.90
2019-05-01T01:29:06.734Z,31.17
2019-05-01T01:32:11.151Z,32.40
2019-05-01T01:35:15.569Z,31.93
2019-05-01T01:38:20.095Z,32.87
2019-05-01T01:41:24.819Z,31.63
2019-05-01T01:44:47.468Z,31.83
2019-05-01T01:48:11.916Z,30.83
2019-05-01T01:51:16.592Z,30.87
2019-05-01T01:54:21.119Z,30.77
2019-05-01T01:57:46.034Z,30.90
2019-05-01T02:01:09.640Z,28.90
2019-05-01T02:04:36.752Z,29.93
2019-05-01T02:07:41.252Z,29.90
2019-05-01T02:10:45.546Z,29.50
2019-05-01T02:13:50.447Z,29.97
2019-05-01T02:16:54.774Z,28.33
2019-05-01T02:19:59.017Z,29.57
2019-05-01T02:23:03.370Z,29.17
2019-05-01T02:26:09.232Z,28.93
2019-05-01T02:29:25.204Z,30.53
2019-05-01T02:32:29.950Z,28.80
2019-05-01T02:35:35.769Z,28.80
2019-05-01T02:38:41.762Z,29.63
2019-05-01T02:41:48.608Z,30.13
2019-05-01T02:44:55.090Z,29.00
2019-05-01T02:48:01.204Z,27.83
2019-05-01T02:51:07.017Z,29.33
2019-05-01T02:54:14.245Z,28.77
2019-05-01T02:57:21.014Z,29.57
2019-05-01T03:00:26.340Z,29.70
2019-05-01T03:03:30.680Z,28.20
2019-05-01T03:06:36.464Z,28.87
2019-05-01T03:09:41.755Z,30.43
2019-05-01T03:12:48.614Z,30.80
2019-05-01T03:15:53.202Z,31.03
2019-05-01T03:19:00.119Z,30.63
2019-05-01T03:22:10.382Z,31.60
2019-05-01T03:25:14.980Z,29.77
2019-05-01T03:28:19.395Z,29.90
2019-05-01T03:31:23.952Z,28.80
2019-05-01T03:34:29.229Z,28.97
2019-05-01T03:37:33.703Z,30.60
2019-05-01T03:40:38.112Z,28.93
2019-05-01T03:43:42.805Z,28.93
2019-05-01T03:46:47.182Z,27.53
2019-05-01T03:49:52.572Z,28.40
2019-05-01T03:52:57.093Z,29.97
2019-05-01T03:56:01.840Z,28.73
2019-05-01T03:59:08.013Z,28.07
2019-05-01T04:02:38.085Z,28.67
2019-05-01T04:05:42.426Z,26.57
2019-05-01T04:08:46.898Z,27.70
2019-05-01T04:11:51.671Z,26.13
2019-05-01T04:14:56.265Z,27.87
2019-05-01T04:18:02.585Z,27.73
2019-05-01T04:21:29.027Z,26.83
2019-05-01T04:24:33.555Z,26.93
2019-05-01T04:27:40.321Z,25.33
2019-05-01T04:31:10.189Z,25.50
2019-05-01T04:34:27.164Z,25.30
2019-05-01T04:37:31.691Z,24.23
2019-05-01T04:40:36.416Z,24.37
2019-05-01T04:43:40.718Z,25.33
2019-05-01T04:46:45.136Z,24.37
2019-05-01T04:49:50.041Z,27.50
2019-05-01T04:52:55.130Z,25.87
2019-05-01T04:55:59.721Z,24.33
2019-05-01T04:59:04.349Z,24.80
2019-05-01T05:02:10.574Z,23.80
2019-05-01T05:05:15.551Z,24.17
2019-05-01T05:08:20.000Z,25.00
2019-05-01T05:11:27.124Z,24.47
2019-05-01T05:14:33.303Z,24.73
2019-05-01T05:17:37.693Z,22.73
2019-05-01T05:20:42.253Z,24.13
2019-05-01T05:23:46.713Z,25.27
2019-05-01T05:26:51.628Z,24.13
2019-05-01T05:29:58.196Z,25.53
2019-05-01T05:33:17.791Z,23.80
2019-05-01T05:36:14.098Z,23.83
2019-05-01T05:39:34.583Z,23.50
2019-05-01T05:42:38.964Z,23.03
2019-05-01T05:45:43.492Z,22.97
2019-05-01T05:48:48.367Z,23.63
2019-05-01T05:52:04.156Z,23.13
2019-05-01T05:55:26.912Z,21.80
2019-05-01T05:58:41.153Z,22.97
2019-05-01T06:02:09.816Z,24.87
2019-05-01T06:05:31.236Z,22.97
2019-05-01T06:08:38.333Z,24.60
2019-05-01T06:11:53.676Z,25.27
2019-05-01T06:15:22.452Z,24.97
2019-05-01T06:19:01.142Z,24.20
2019-05-01T06:22:16.012Z,24.00
2019-05-01T06:25:25.953Z,23.83
2019-05-01T06:28:30.659Z,24.23
2019-05-01T06:31:35.564Z,24.90
2019-05-01T06:34:40.096Z,23.60
2019-05-01T06:38:05.564Z,23.57
2019-05-01T06:41:10.348Z,24.10
2019-05-01T06:44:39.117Z,23.70
2019-05-01T06:47:55.016Z,22.80
2019-05-01T06:51:18.902Z,23.30
2019-05-01T06:54:25.961Z,22.37
2019-05-01T06:57:30.955Z,22.73
2019-05-01T07:00:39.215Z,22.60
2019-05-01T07:03:46.995Z,20.97
2019-05-01T07:06:49.518Z,21.67
2019-05-01T07:09:56.034Z,23.07
2019-05-01T07:13:04.851Z,22.90
2019-05-01T07:16:08.764Z,20.67
2019-05-01T07:19:13.579Z,20.20
2019-05-01T07:22:17.997Z,18.20
2019-05-01T07:25:22.322Z,18.80
2019-05-01T07:28:28.788Z,18.93
2019-05-01T07:31:34.382Z,17.73
2019-05-01T07:34:38.801Z,18.80
2019-05-01T07:37:43.405Z,18.00
2019-05-01T07:40:48.199Z,19.70
2019-05-01T07:44:01.031Z,18.23
2019-05-01T07:47:19.891Z,18.37
2019-05-01T07:50:31.521Z,17.07
2019-05-01T07:53:31.257Z,17.47
2019-05-01T07:56:35.857Z,17.87
2019-05-01T07:59:40.178Z,16.63
2019-05-01T08:02:44.661Z,16.47
2019-05-01T08:05:49.059Z,15.83
2019-05-01T08:08:53.367Z,16.83
2019-05-01T08:11:57.728Z,15.23
2019-05-01T08:15:02.103Z,15.53
2019-05-01T08:18:17.027Z,13.83
2019-05-01T08:21:40.288Z,13.43
2019-05-01T08:24:44.710Z,13.23
2019-05-01T08:28:08.005Z,13.57
2019-05-01T08:31:34.632Z,13.23
2019-05-01T08:34:48.713Z,13.83
2019-05-01T08:37:45.148Z,16.17
2019-05-01T08:40:50.656Z,16.60
2019-05-01T08:43:55.942Z,14.33
2019-05-01T08:47:07.742Z,14.23
2019-05-01T08:50:19.872Z,12.90
2019-05-01T08:53:25.671Z,13.70
2019-05-01T08:56:30.007Z,11.63
2019-05-01T08:59:34.310Z,11.43
2019-05-01T09:02:41.809Z,11.83
2019-05-01T09:05:44.673Z,11.67
2019-05-01T09:08:48.990Z,11.83
2019-05-01T09:11:54.718Z,13.80
2019-05-01T09:14:59.279Z,13.20
2019-05-01T09:18:03.631Z,12.83
2019-05-01T09:21:08.043Z,13.90
2019-05-01T09:24:12.419Z,14.27
2019-05-01T09:27:53.585Z,14.30
2019-05-01T09:31:02.232Z,14.30
2019-05-01T09:34:09.452Z,13.57
2019-05-01T09:37:13.299Z,13.90
2019-05-01T09:40:17.739Z,12.77
2019-05-01T09:43:22.106Z,12.80
2019-05-01T09:46:26.431Z,12.93
2019-05-01T09:49:30.755Z,13.47
2019-05-01T09:52:55.164Z,13.43
2019-05-01T09:56:07.717Z,12.47
2019-05-01T09:59:17.513Z,12.83
2019-05-01T10:02:19.385Z,13.53
2019-05-01T10:05:28.890Z,11.67
2019-05-01T10:08:34.823Z,11.43
2019-05-01T10:11:40.611Z,10.07
2019-05-01T10:14:43.367Z,9.50
2019-05-01T10:17:47.700Z,9.73
2019-05-01T10:20:52.075Z,9.93
2019-05-01T10:23:56.354Z,10.40
2019-05-01T10:27:02.227Z,10.23
2019-05-01T10:30:16.710Z,10.93
2019-05-01T10:33:23.538Z,10.60
2019-05-01T10:36:37.971Z,11.30
2019-05-01T10:39:42.188Z,11.63
2019-05-01T10:42:46.556Z,11.70
2019-05-01T10:45:50.925Z,11.13
2019-05-01T10:48:57.296Z,11.70
2019-05-01T10:52:13.133Z,10.40
2019-05-01T10:55:07.616Z,9.10
2019-05-01T10:58:12.904Z,8.87
2019-05-01T11:01:26.489Z,8.63
2019-05-01T11:04:34.137Z,8.20
2019-05-01T11:07:38.424Z,8.47
2019-05-01T11:10:42.749Z,8.90
2019-05-01T11:13:47.075Z,8.60
2019-05-01T11:16:52.786Z,9.17
2019-05-01T11:19:57.223Z,9.13
2019-05-01T11:23:01.724Z,8.80
2019-05-01T11:26:06.615Z,9.00
2019-05-01T11:29:10.926Z,9.13
2019-05-01T11:32:34.402Z,8.93
2019-05-01T11:36:09.638Z,9.27
2019-05-01T11:39:29.838Z,8.50
2019-05-01T11:42:34.176Z,9.70
2019-05-01T11:45:38.485Z,10.07
2019-05-01T11:48:44.439Z,9.30
2019-05-01T11:51:48.950Z,10.07
2019-05-01T11:54:54.919Z,9.00
2019-05-01T11:57:59.271Z,8.90
2019-05-01T12:01:04.372Z,8.13
2019-05-01T12:04:10.510Z,8.83
2019-05-01T12:07:14.899Z,8.23
2019-05-01T12:10:19.699Z,8.70
2019-05-01T12:13:25.259Z,7.77
2019-05-01T12:16:47.636Z,8.70
2019-05-01T12:20:11.092Z,9.17
2019-05-01T12:23:15.465Z,8.73
2019-05-01T12:26:38.899Z,8.60
2019-05-01T12:29:43.281Z,9.10
2019-05-01T12:32:47.600Z,8.77
2019-05-01T12:35:53.937Z,9.57
2019-05-01T12:38:58.370Z,9.60
2019-05-01T12:42:02.913Z,9.70
2019-05-01T12:45:08.685Z,8.57
2019-05-01T12:48:12.996Z,7.17
2019-05-01T12:51:17.327Z,7.40
2019-05-01T12:54:51.821Z,7.00
2019-05-01T12:57:55.551Z,7.10
2019-05-01T13:00:59.867Z,6.50
2019-05-01T13:04:23.316Z,6.43
2019-05-01T13:07:27.847Z,6.17
2019-05-01T13:10:32.237Z,5.90
2019-05-01T13:13:36.621Z,6.40
2019-05-01T13:16:40.949Z,6.23
2019-05-01T13:19:45.373Z,5.93
2019-05-01T13:22:49.685Z,6.40
2019-05-01T13:25:56.248Z,7.00
2019-05-01T13:29:05.509Z,7.30
2019-05-01T13:32:27.405Z,7.80
2019-05-01T13:35:32.518Z,7.33
2019-05-01T13:38:37.772Z,7.10
2019-05-01T13:41:42.221Z,7.13
2019-05-01T13:44:46.520Z,6.70
2019-05-01T13:47:50.878Z,7.27
2019-05-01T13:50:55.285Z,7.13
2019-05-01T13:53:59.598Z,7.13
2019-05-01T13:57:03.907Z,7.30
2019-05-01T14:00:11.495Z,7.30
2019-05-01T14:03:16.108Z,7.03
2019-05-01T14:06:20.379Z,6.90
2019-05-01T14:09:29.198Z,6.17
2019-05-01T14:12:33.541Z,6.63
2019-05-01T14:15:37.894Z,6.20
2019-05-01T14:18:42.197Z,6.00
2019-05-01T14:22:08.572Z,5.37
2019-05-01T14:25:12.973Z,5.63
2019-05-01T14:28:17.290Z,5.63
2019-05-01T14:31:21.615Z,6.30
2019-05-01T14:34:25.944Z,6.17
2019-05-01T14:37:30.280Z,5.87
2019-05-01T14:40:34.756Z,5.67
2019-05-01T14:43:39.165Z,6.07
2019-05-01T14:46:46.210Z,6.03
2019-05-01T14:49:50.662Z,5.97
2019-05-01T14:52:54.978Z,5.70
2019-05-01T14:55:59.404Z,6.30
2019-05-01T14:59:04.269Z,6.47
2019-05-01T15:02:08.628Z,6.97
2019-05-01T15:05:13.082Z,6.27
2019-05-01T15:08:17.357Z,6.57
2019-05-01T15:11:21.738Z,5.90
2019-05-01T15:14:49.101Z,6.17
2019-05-01T15:18:12.346Z,5.73
2019-05-01T15:21:16.766Z,5.17
2019-05-01T15:24:21.110Z,5.93
2019-05-01T15:27:25.422Z,5.83
2019-05-01T15:30:29.795Z,5.87
2019-05-01T15:33:36.192Z,5.57
2019-05-01T15:36:40.541Z,4.83
2019-05-01T15:39:50.743Z,6.00
2019-05-01T15:43:01.451Z,5.10
2019-05-01T15:46:05.870Z,4.87
2019-05-01T15:49:10.601Z,5.37
2019-05-01T15:52:14.927Z,6.00
2019-05-01T15:55:19.253Z,6.83
2019-05-01T15:58:23.669Z,7.13
2019-05-01T16:01:27.995Z,6.13
2019-05-01T16:04:32.304Z,6.33
2019-05-01T16:07:36.632Z,6.63
2019-05-01T16:10:51.408Z,7.10
2019-05-01T16:13:58.449Z,6.80
2019-05-01T16:17:02.817Z,7.50
2019-05-01T16:20:07.704Z,7.27
2019-05-01T16:23:15.029Z,7.53
2019-05-01T16:26:19.404Z,6.80
2019-05-01T16:29:23.772Z,7.07
2019-05-01T16:32:28.349Z,6.70
2019-05-01T16:35:32.656Z,6.77
2019-05-01T16:38:54.831Z,6.57
2019-05-01T16:41:59.315Z,6.30
2019-05-01T16:45:04.039Z,7.20
2019-05-01T16:48:08.437Z,6.87
2019-05-01T16:51:12.910Z,6.70
2019-05-01T16:54:17.237Z,6.37
2019-05-01T16:57:21.557Z,6.53
2019-05-01T17:01:22.544Z,6.40
2019-05-01T17:04:54.254Z,5.50
2019-05-01T17:08:12.215Z,6.40
2019-05-01T17:11:17.456Z,6.37
2019-05-01T17:14:40.815Z,6.40
2019-05-01T17:17:45.241Z,7.00
2019-05-01T17:20:49.657Z,5.80
2019-05-01T17:23:53.970Z,6.30
2019-05-01T17:26:58.688Z,6.77
2019-05-01T17:30:04.571Z,6.73
2019-05-01T17:33:20.513Z,5.87
2019-05-01T17:36:21.358Z,5.53
2019-05-01T17:39:26.096Z,5.73
2019-05-01T17:42:32.904Z,5.90
2019-05-01T17:45:36.785Z,6.50
2019-05-01T17:48:41.172Z,7.13
2019-05-01T17:51:46.440Z,5.90
2019-05-01T17:54:51.603Z,6.17
2019-05-01T17:58:02.134Z,5.87
2019-05-01T18:01:27.874Z,5.87
2019-05-01T18:04:45.753Z,5.77
2019-05-01T18:07:53.904Z,5.73
2019-05-01T18:10:58.248Z,5.57
2019-05-01T18:14:05.430Z,6.00
2019-05-01T18:17:09.839Z,5.40
2019-05-01T18:20:14.501Z,5.67
2019-05-01T18:23:36.381Z,6.67
2019-05-01T18:27:03.725Z,5.60
2019-05-01T18:30:11.360Z,5.90
2019-05-01T18:33:15.707Z,5.50
2019-05-01T18:36:24.584Z,5.07
2019-05-01T18:39:35.181Z,5.73
2019-05-01T18:42:39.528Z,5.87
2019-05-01T18:45:54.632Z,6.00
2019-05-01T18:48:59.361Z,5.90
2019-05-01T18:52:04.381Z,6.20
2019-05-01T18:55:08.782Z,5.53
2019-05-01T18:58:13.131Z,5.87
2019-05-01T19:01:18.182Z,5.47
2019-05-01T19:04:24.728Z,6.53
2019-05-01T19:07:31.970Z,5.63
2019-05-01T19:10:36.545Z,6.00
2019-05-01T19:14:01.047Z,5.97
2019-05-01T19:17:05.622Z,5.37
2019-05-01T19:20:10.030Z,5.33
2019-05-01T19:23:14.570Z,5.60
2019-05-01T19:26:19.678Z,5.50
2019-05-01T19:29:26.851Z,5.17
2019-05-01T19:32:50.824Z,5.50
2019-05-01T19:35:55.230Z,5.73
2019-05-01T19:38:59.644Z,5.63
2019-05-01T19:42:04.113Z,6.10
2019-05-01T19:45:08.912Z,6.07
2019-05-01T19:48:13.565Z,5.90
2019-05-01T19:51:19.286Z,5.80
2019-05-01T19:54:27.855Z,5.67
2019-05-01T19:57:31.540Z,5.67
2019-05-01T20:00:56.693Z,5.60
2019-05-01T20:04:01.029Z,5.60
2019-05-01T20:07:05.462Z,5.40
2019-05-01T20:10:11.587Z,6.40
2019-05-01T20:13:15.931Z,6.20
2019-05-01T20:16:21.341Z,6.07
2019-05-01T20:19:26.003Z,5.60
2019-05-01T20:22:31.447Z,5.83
2019-05-01T20:25:35.770Z,6.43
2019-05-01T20:28:40.181Z,6.47
2019-05-01T20:31:50.382Z,6.83
2019-05-01T20:34:52.767Z,7.37
2019-05-01T20:37:56.685Z,7.03
2019-05-01T20:41:01.095Z,6.33
2019-05-01T20:44:05.684Z,6.90
2019-05-01T20:47:10.012Z,7.13
2019-05-01T20:50:14.645Z,6.30
2019-05-01T20:53:18.955Z,6.93
2019-05-01T20:56:34.569Z,6.63
2019-05-01T20:59:40.415Z,7.40
2019-05-01T21:02:44.881Z,6.67
2019-05-01T21:06:14.311Z,7.17
2019-05-01T21:09:21.612Z,6.77
2019-05-01T21:12:25.998Z,6.37
2019-05-01T21:15:30.362Z,6.40
2019-05-01T21:18:34.805Z,6.20
2019-05-01T21:21:39.137Z,6.17
2019-05-01T21:24:44.378Z,6.10
2019-05-01T21:27:48.907Z,6.90
2019-05-01T21:30:54.351Z,6.57
2019-05-01T21:33:58.811Z,6.33
2019-05-01T21:37:03.131Z,6.67
2019-05-01T21:40:07.701Z,6.50
2019-05-01T21:43:13.595Z,6.90
2019-05-01T21:46:18.181Z,6.23
2019-05-01T21:49:23.013Z,6.20
2019-05-01T21:52:27.411Z,6.17
2019-05-01T21:55:32.108Z,6.33
2019-05-01T21:58:36.575Z,6.33
2019-05-01T22:01:41.187Z,5.90
2019-05-01T22:04:45.624Z,6.27
2019-05-01T22:07:49.869Z,5.83
2019-05-01T22:10:57.548Z,6.07
2019-05-01T22:14:02.091Z,5.93
2019-05-01T22:17:11.650Z,6.30
2019-05-01T22:20:18.594Z,5.67
2019-05-01T22:23:24.060Z,6.73
2019-05-01T22:26:30.343Z,6.43
2019-05-01T22:29:37.364Z,5.90
2019-05-01T22:32:45.714Z,6.23
2019-05-01T22:35:53.555Z,6.17
2019-05-01T22:39:02.306Z,6.23
2019-05-01T22:42:03.990Z,6.07
2019-05-01T22:45:10.788Z,6.13
2019-05-01T22:48:15.283Z,6.17
2019-05-01T22:51:24.000Z,5.83
2019-05-01T22:54:28.338Z,6.50
2019-05-01T22:57:32.632Z,7.00
2019-05-01T23:00:44.906Z,6.33
2019-05-01T23:03:52.806Z,6.40
2019-05-01T23:06:57.194Z,5.90
2019-05-01T23:10:03.263Z,6.37
2019-05-01T23:13:07.509Z,6.77
2019-05-01T23:16:12.134Z,7.43
2019-05-01T23:19:16.607Z,6.40
2019-05-01T23:22:22.532Z,6.37
2019-05-01T23:25:27.053Z,6.40
2019-05-01T23:28:35.016Z,6.17
2019-05-01T23:31:37.528Z,6.63
2019-05-01T23:34:41.843Z,6.50
2019-05-01T23:37:46.237Z,6.60
2019-05-01T23:40:50.981Z,6.17
2019-05-01T23:43:58.275Z,7.17
2019-05-01T23:47:02.582Z,6.67
2019-05-01T23:50:07.407Z,6.87
2019-05-01T23:53:13.903Z,6.70
2019-05-01T23:56:18.270Z,6.77
2019-05-01T23:59:22.646Z,6.60
